Terminal Aerodrome Forecast
Issued by NWS

Current Version | Previous Version | Graphics & Text | Print | Product List | Glossary On
Versions: 1 2 3 4 5 6 7 8 9 10 11 12 13 14 15 16 17 18 19
000
FTUS41 KILN 010200 AAA
TAFLCK
TAF AMD
KLCK 010249Z 0103/0124 VRB03KT P6SM BKN021
     FM010600 00000KT 5SM BR BKN015
      TEMPO 0108/0112 1SM BR OVC007
     FM011500 VRB03KT P6SM BKN025
     FM011700 VRB04KT P6SM BKN040=

USA.gov is the U.S. government's official web portal to all federal, state and local government web resources and services.